Time;durP1;ratioP1;P1;durP2;ratioP2;P2;SDS_P1;SDS_P2;PMS_P1;PMS_P2;Temp;Humidity;BMP_temperature;BMP_pressure;BME280_temperature;BME280_humidity;BME280_pressure;Samples;Min_cycle;Max_cycle;Signal;HPM_P1;HPM_P2
2023/05/05 00:01:38;;;;;;;10.18;6.07;;;17.90;52.70;;;;;;5070931;28;20020;-62
2023/05/05 00:04:04;;;;;;;11.50;5.57;;;17.90;53.00;;;;;;5070783;28;20056;-63
2023/05/05 00:06:30;;;;;;;8.85;5.20;;;17.80;53.10;;;;;;5063012;28;20424;-62
2023/05/05 00:08:56;;;;;;;8.65;5.55;;;17.80;53.30;;;;;;5066518;28;20441;-63
2023/05/05 00:11:21;;;;;;;9.23;5.45;;;17.80;53.40;;;;;;5073640;28;20035;-62
2023/05/05 00:13:47;;;;;;;11.18;6.00;;;17.70;53.20;;;;;;5070795;28;20025;-63
2023/05/05 00:16:13;;;;;;;11.55;6.40;;;17.80;53.40;;;;;;5073621;28;20028;-63
2023/05/05 00:18:39;;;;;;;8.75;5.70;;;17.80;53.70;;;;;;5069767;28;20115;-63
2023/05/05 00:21:05;;;;;;;9.23;5.40;;;17.80;53.80;;;;;;5072142;28;20029;-62
2023/05/05 00:23:31;;;;;;;8.18;5.75;;;17.70;53.80;;;;;;5067749;28;20032;-63
2023/05/05 00:25:57;;;;;;;9.63;5.55;;;17.70;54.10;;;;;;5057879;28;20029;-63
2023/05/05 00:28:22;;;;;;;9.10;5.57;;;17.70;54.20;;;;;;5082965;28;20234;-63
2023/05/05 00:30:48;;;;;;;12.73;5.88;;;17.70;54.30;;;;;;5070483;28;20056;-63
2023/05/05 00:33:14;;;;;;;9.60;5.72;;;17.60;54.40;;;;;;5065945;28;20513;-63
2023/05/05 00:35:40;;;;;;;9.50;5.65;;;17.60;54.60;;;;;;5067877;28;20457;-62
2023/05/05 00:38:06;;;;;;;9.20;5.68;;;17.60;54.80;;;;;;5070468;28;20513;-62
2023/05/05 00:40:32;;;;;;;9.18;5.60;;;17.60;54.90;;;;;;5069457;28;20036;-62
2023/05/05 00:42:58;;;;;;;8.35;5.95;;;17.60;55.10;;;;;;5068849;28;20028;-62
2023/05/05 00:45:25;;;;;;;9.30;5.38;;;17.60;55.10;;;;;;5065412;28;20063;-62
2023/05/05 00:47:56;;;;;;;9.50;5.25;;;17.50;55.20;;;;;;5060357;28;20056;-62
2023/05/05 00:50:28;;;;;;;11.52;5.90;;;17.50;55.30;;;;;;5063645;28;20032;-62
2023/05/05 00:52:59;;;;;;;;;;;17.50;55.30;;;;;;5060145;28;20036;-63
2023/05/05 00:55:25;;;;;;;10.15;5.63;;;17.50;55.20;;;;;;5069219;28;20364;-63
2023/05/05 00:57:51;;;;;;;10.02;5.57;;;17.50;55.20;;;;;;5061126;28;20045;-62
2023/05/05 01:00:17;;;;;;;8.65;5.38;;;17.50;55.40;;;;;;5061261;28;20028;-62
2023/05/05 01:02:44;;;;;;;9.00;5.68;;;17.50;55.40;;;;;;5064122;28;20025;-62
2023/05/05 01:05:12;;;;;;;9.18;5.43;;;17.50;55.40;;;;;;5056105;28;20024;-63
2023/05/05 01:07:54;;;;;;;9.48;5.32;;;17.40;55.40;;;;;;5063380;28;20029;-62
2023/05/05 01:10:30;;;;;;;10.63;5.40;;;17.50;55.70;;;;;;5064861;28;20113;-62
2023/05/05 01:13:25;;;;;;;8.57;5.35;;;17.40;55.90;;;;;;5072953;28;20442;-63
2023/05/05 01:16:01;;;;;;;8.85;5.57;;;17.40;56.00;;;;;;5072017;28;20534;-63
2023/05/05 01:18:27;;;;;;;9.98;5.97;;;17.40;56.10;;;;;;5071395;28;20392;-63
2023/05/05 01:21:32;;;;;;;9.57;6.07;;;17.40;56.30;;;;;;5064434;28;20021;-63
2023/05/05 01:24:19;;;;;;;13.68;6.57;;;17.40;56.50;;;;;;5065179;28;20029;-63
2023/05/05 01:26:48;;;;;;;9.23;5.65;;;17.40;56.50;;;;;;5064133;28;20032;-63
2023/05/05 01:29:37;;;;;;;9.95;5.97;;;17.40;56.50;;;;;;5072009;28;20028;-62
2023/05/05 01:32:10;;;;;;;10.65;6.63;;;17.40;56.60;;;;;;5068367;28;20056;-62
2023/05/05 01:35:00;;;;;;;11.68;6.72;;;17.40;56.70;;;;;;5068808;28;20031;-62
2023/05/05 01:37:37;;;;;;;10.15;7.05;;;17.40;56.80;;;;;;5066817;28;20025;-62
2023/05/05 01:40:06;;;;;;;12.60;6.97;;;17.40;56.80;;;;;;5071850;28;20055;-63
2023/05/05 01:42:35;;;;;;;10.32;6.53;;;17.40;56.90;;;;;;5064887;28;20476;-63
2023/05/05 01:45:05;;;;;;;10.68;6.70;;;17.40;57.00;;;;;;5069608;28;20086;-63
2023/05/05 01:47:31;;;;;;;11.05;7.22;;;17.40;57.10;;;;;;5062073;28;20360;-62
2023/05/05 01:49:58;;;;;;;11.10;7.15;;;17.50;57.30;;;;;;5054802;28;20040;-62
2023/05/05 01:52:26;;;;;;;12.93;7.47;;;17.50;57.40;;;;;;5070841;28;20036;-63
2023/05/05 01:54:53;;;;;;;11.13;7.72;;;17.50;57.60;;;;;;5069801;28;20016;-63
2023/05/05 01:57:21;;;;;;;13.68;8.48;;;17.50;57.70;;;;;;5065040;28;20041;-63
2023/05/05 01:59:50;;;;;;;11.77;8.13;;;17.50;57.90;;;;;;5052504;28;20025;-63
2023/05/05 02:02:20;;;;;;;15.32;8.60;;;17.50;58.20;;;;;;5070965;28;20020;-62
2023/05/05 02:04:48;;;;;;;12.13;8.18;;;17.50;58.30;;;;;;5072733;28;20345;-63
2023/05/05 02:07:15;;;;;;;13.70;8.93;;;17.50;58.50;;;;;;5071616;28;20092;-63
2023/05/05 02:09:43;;;;;;;13.02;8.82;;;17.50;58.70;;;;;;5071715;28;20040;-63
2023/05/05 02:12:10;;;;;;;12.18;8.80;;;17.50;58.90;;;;;;5070071;28;20031;-62
2023/05/05 02:14:39;;;;;;;14.48;9.35;;;17.50;59.00;;;;;;5070009;28;20090;-62
2023/05/05 02:17:05;;;;;;;16.25;8.75;;;17.50;59.20;;;;;;5070859;28;20056;-63
2023/05/05 02:19:38;;;;;;;13.00;9.48;;;17.50;59.30;;;;;;5072305;28;20028;-62
2023/05/05 02:22:04;;;;;;;15.07;8.85;;;17.50;59.60;;;;;;5072786;28;20392;-63
2023/05/05 02:24:30;;;;;;;12.63;9.30;;;17.50;59.70;;;;;;5058539;28;20095;-62
2023/05/05 02:26:58;;;;;;;14.93;9.50;;;17.50;60.00;;;;;;5065203;28;20044;-63
2023/05/05 02:29:50;;;;;;;14.63;9.80;;;17.40;60.10;;;;;;5069632;28;20028;-63
2023/05/05 02:32:26;;;;;;;13.27;10.43;;;17.40;60.40;;;;;;5075246;28;20036;-62
2023/05/05 02:34:54;;;;;;;12.23;8.80;;;17.40;60.50;;;;;;5072811;28;20108;-63
2023/05/05 02:37:23;;;;;;;13.68;9.90;;;17.40;60.60;;;;;;5075264;28;20031;-62
2023/05/05 02:39:59;;;;;;;15.02;9.70;;;17.40;60.80;;;;;;5072713;28;20020;-62
2023/05/05 02:42:32;;;;;;;12.48;9.30;;;17.40;61.00;;;;;;5075257;28;20031;-63
2023/05/05 02:45:04;;;;;;;13.10;9.15;;;17.40;61.10;;;;;;5070892;28;20021;-63
2023/05/05 02:47:36;;;;;;;13.07;8.55;;;17.40;61.30;;;;;;5063648;28;20025;-62
2023/05/05 02:50:04;;;;;;;12.90;8.77;;;17.30;61.50;;;;;;5061602;28;20032;-62
2023/05/05 02:52:32;;;;;;;10.95;8.68;;;17.30;61.60;;;;;;5074887;28;20365;-62
2023/05/05 02:54:59;;;;;;;13.05;9.18;;;17.30;61.90;;;;;;5073453;28;20020;-62
2023/05/05 02:57:37;;;;;;;11.73;8.48;;;17.30;62.00;;;;;;5062253;28;20082;-63
2023/05/05 03:00:29;;;;;;;13.15;8.60;;;17.20;62.20;;;;;;5064628;28;20020;-62
2023/05/05 03:02:58;;;;;;;12.80;8.25;;;17.20;62.30;;;;;;5069399;28;20124;-62
2023/05/05 03:05:34;;;;;;;11.63;8.07;;;17.20;62.30;;;;;;5075203;28;20048;-62
2023/05/05 03:08:12;;;;;;;12.55;8.82;;;17.10;62.50;;;;;;5064428;28;20031;-63
2023/05/05 03:11:03;;;;;;;13.10;8.48;;;17.10;62.70;;;;;;5074151;28;20048;-62
2023/05/05 03:13:33;;;;;;;11.33;8.60;;;17.10;62.80;;;;;;5068084;28;20040;-62
2023/05/05 03:16:05;;;;;;;11.70;8.93;;;17.10;62.90;;;;;;5070721;28;20309;-63
2023/05/05 03:18:33;;;;;;;14.05;9.18;;;17.10;63.00;;;;;;5064727;28;20017;-63
2023/05/05 03:21:07;;;;;;;13.77;9.43;;;17.00;63.10;;;;;;5077742;28;20021;-62
2023/05/05 03:23:35;;;;;;;13.75;9.50;;;17.00;63.30;;;;;;5066181;28;20107;-62
2023/05/05 03:26:03;;;;;;;13.43;9.60;;;17.00;63.40;;;;;;5067856;28;20400;-62
2023/05/05 03:28:36;;;;;;;14.00;9.73;;;17.00;63.50;;;;;;5069020;28;20067;-62
2023/05/05 03:31:09;;;;;;;14.75;10.55;;;17.00;63.70;;;;;;5069343;28;20039;-62
2023/05/05 03:33:37;;;;;;;14.50;10.48;;;16.90;63.80;;;;;;5072617;28;20453;-62
2023/05/05 03:36:02;;;;;;;14.80;9.63;;;16.90;64.00;;;;;;5072085;28;20203;-62
2023/05/05 03:38:28;;;;;;;13.48;10.63;;;16.90;64.20;;;;;;5054489;28;20119;-62
2023/05/05 03:40:54;;;;;;;14.52;10.52;;;16.80;64.30;;;;;;5084069;28;20384;-62
2023/05/05 03:43:23;;;;;;;14.25;10.93;;;16.80;64.50;;;;;;5053806;28;20055;-62
2023/05/05 03:45:49;;;;;;;17.63;11.77;;;16.80;64.70;;;;;;5070045;28;20059;-62
2023/05/05 03:48:15;;;;;;;15.55;11.00;;;16.70;64.80;;;;;;5064609;28;20040;-62
2023/05/05 03:50:44;;;;;;;16.42;12.23;;;16.70;65.00;;;;;;5070542;28;20441;-62
2023/05/05 03:53:11;;;;;;;17.35;12.20;;;16.70;65.20;;;;;;5069258;28;20345;-62
2023/05/05 03:55:37;;;;;;;17.80;12.57;;;16.60;65.30;;;;;;5072520;28;20021;-62
2023/05/05 03:58:04;;;;;;;15.90;12.45;;;16.60;65.40;;;;;;5067566;28;20048;-62
2023/05/05 04:00:31;;;;;;;17.77;12.70;;;16.60;65.60;;;;;;5064487;28;20139;-62
2023/05/05 04:02:57;;;;;;;17.58;12.48;;;16.60;65.80;;;;;;5063389;28;20101;-62
2023/05/05 04:05:24;;;;;;;18.95;13.85;;;16.50;65.90;;;;;;5067091;28;20090;-62
2023/05/05 04:07:50;;;;;;;16.63;12.85;;;16.50;66.00;;;;;;5069493;28;20358;-62
2023/05/05 04:10:16;;;;;;;18.60;13.52;;;16.50;66.20;;;;;;5070117;28;20036;-62
2023/05/05 04:12:42;;;;;;;17.73;13.95;;;16.50;66.30;;;;;;5068322;28;20115;-62
2023/05/05 04:15:08;;;;;;;20.10;14.02;;;16.50;66.40;;;;;;5065734;28;20024;-62
2023/05/05 04:17:35;;;;;;;17.60;13.73;;;16.50;66.50;;;;;;5062295;28;20012;-62
2023/05/05 04:20:01;;;;;;;18.25;14.52;;;16.40;66.60;;;;;;5067484;28;20124;-62
2023/05/05 04:22:29;;;;;;;17.63;13.32;;;16.40;66.60;;;;;;5068284;28;20056;-63
2023/05/05 04:24:55;;;;;;;19.88;14.48;;;16.40;66.70;;;;;;5071652;28;20406;-62
2023/05/05 04:27:21;;;;;;;19.65;14.63;;;16.50;66.90;;;;;;5070848;28;20033;-62
2023/05/05 04:29:48;;;;;;;19.98;14.30;;;16.40;66.90;;;;;;5075726;28;20071;-62
2023/05/05 04:32:13;;;;;;;19.30;14.90;;;16.40;67.00;;;;;;5069832;28;20048;-62
2023/05/05 04:34:39;;;;;;;20.35;14.43;;;16.40;67.10;;;;;;5068297;28;20028;-62
2023/05/05 04:37:05;;;;;;;20.02;13.90;;;16.40;67.90;;;;;;5062359;28;20027;-62
2023/05/05 04:39:31;;;;;;;18.50;13.90;;;16.40;67.40;;;;;;5058496;28;20338;-62
2023/05/05 04:41:57;;;;;;;17.33;13.27;;;16.40;67.50;;;;;;5059218;28;20036;-62
2023/05/05 04:44:23;;;;;;;16.55;12.68;;;16.40;67.60;;;;;;5067034;28;20082;-63
2023/05/05 04:46:49;;;;;;;16.27;12.98;;;16.40;67.70;;;;;;5067710;28;20461;-62
2023/05/05 04:49:15;;;;;;;17.08;12.82;;;16.40;67.70;;;;;;5081675;28;20162;-62
2023/05/05 04:51:41;;;;;;;20.13;13.45;;;16.30;67.70;;;;;;5069720;28;20025;-62
2023/05/05 04:54:07;;;;;;;17.65;13.32;;;16.40;67.90;;;;;;5069559;28;20373;-65
2023/05/05 04:56:33;;;;;;;16.10;12.23;;;16.40;68.70;;;;;;5058725;28;20024;-62
2023/05/05 04:58:59;;;;;;;16.38;11.60;;;16.40;68.10;;;;;;5072763;28;20044;-62
2023/05/05 05:01:25;;;;;;;17.48;13.07;;;16.30;68.10;;;;;;5068642;28;20058;-62
2023/05/05 05:03:50;;;;;;;14.85;11.57;;;16.30;68.20;;;;;;5067590;28;20380;-63
2023/05/05 05:06:16;;;;;;;17.45;12.20;;;16.40;68.30;;;;;;5056418;28;20484;-62
2023/05/05 05:08:42;;;;;;;17.40;11.57;;;16.40;68.40;;;;;;5067656;28;20029;-62
2023/05/05 05:11:08;;;;;;;16.50;11.68;;;16.40;68.40;;;;;;5054408;28;20043;-62
2023/05/05 05:13:34;;;;;;;16.77;12.02;;;16.40;68.50;;;;;;5057225;28;20092;-63
2023/05/05 05:16:00;;;;;;;17.13;12.18;;;16.40;68.50;;;;;;5070678;28;20372;-62
2023/05/05 05:18:26;;;;;;;14.07;11.15;;;16.50;68.60;;;;;;5073389;28;20405;-64
2023/05/05 05:20:52;;;;;;;15.07;11.25;;;16.40;68.50;;;;;;5072727;28;20021;-63
2023/05/05 05:23:19;;;;;;;15.43;11.50;;;16.50;68.50;;;;;;5089563;28;20028;-62
2023/05/05 05:25:45;;;;;;;14.52;10.73;;;16.50;68.40;;;;;;5072546;28;20029;-62
2023/05/05 05:28:13;;;;;;;14.90;10.70;;;16.60;68.30;;;;;;5068666;28;20085;-62
2023/05/05 05:30:45;;;;;;;13.73;10.30;;;16.80;68.00;;;;;;5071889;28;20033;-62
2023/05/05 05:33:11;;;;;;;15.57;10.27;;;17.10;67.60;;;;;;5056298;28;20501;-62
2023/05/05 05:35:38;;;;;;;12.55;9.27;;;17.30;67.20;;;;;;5056256;28;20021;-62
2023/05/05 05:38:04;;;;;;;13.40;10.38;;;17.60;66.80;;;;;;5067323;28;20449;-62
2023/05/05 05:40:30;;;;;;;13.88;9.43;;;18.00;66.20;;;;;;5066889;28;20120;-62
2023/05/05 05:42:56;;;;;;;13.18;9.35;;;18.30;65.50;;;;;;5072602;28;20052;-62
2023/05/05 05:45:24;;;;;;;12.20;8.52;;;18.70;64.70;;;;;;5067337;28;20460;-63
2023/05/05 05:47:50;;;;;;;10.95;7.68;;;18.90;64.10;;;;;;5067045;28;20033;-62
2023/05/05 05:50:17;;;;;;;11.68;7.22;;;18.90;63.80;;;;;;5071015;28;20429;-62
2023/05/05 05:52:42;;;;;;;10.90;6.65;;;19.10;63.50;;;;;;5071412;28;20024;-62
2023/05/05 05:55:09;;;;;;;10.30;6.78;;;19.20;63.20;;;;;;5071473;28;20319;-63
2023/05/05 05:57:35;;;;;;;10.80;6.68;;;19.40;63.10;;;;;;5070541;28;20453;-62
2023/05/05 06:00:03;;;;;;;9.38;6.00;;;19.50;62.90;;;;;;5067216;28;20361;-62
2023/05/05 06:02:37;;;;;;;11.60;6.47;;;19.60;62.60;;;;;;5067405;28;20350;-63
2023/05/05 06:05:05;;;;;;;9.68;6.13;;;19.70;62.30;;;;;;5059746;28;20484;-62
2023/05/05 06:07:31;;;;;;;9.02;5.38;;;19.80;62.00;;;;;;5074341;28;20119;-62
2023/05/05 06:09:56;;;;;;;10.02;5.78;;;19.90;61.80;;;;;;5068374;28;20243;-62
2023/05/05 06:12:22;;;;;;;10.45;5.55;;;20.00;61.50;;;;;;5065028;28;20466;-62
2023/05/05 06:14:48;;;;;;;8.43;5.65;;;20.10;61.20;;;;;;5053644;28;20119;-64
2023/05/05 06:17:14;;;;;;;9.25;5.85;;;20.10;60.90;;;;;;5066261;28;20028;-62
2023/05/05 06:19:42;;;;;;;10.82;6.15;;;20.20;60.70;;;;;;5064323;28;20029;-62
2023/05/05 06:22:08;;;;;;;12.88;5.90;;;20.30;60.50;;;;;;5062585;28;20025;-62
2023/05/05 06:24:35;;;;;;;10.52;5.60;;;20.50;60.20;;;;;;5074610;28;20027;-63
2023/05/05 06:27:01;;;;;;;10.15;6.15;;;20.60;60.00;;;;;;5059337;28;20104;-62
2023/05/05 06:29:27;;;;;;;9.40;5.95;;;20.80;59.70;;;;;;5072297;28;20075;-64
2023/05/05 06:31:53;;;;;;;9.10;6.25;;;20.80;59.50;;;;;;5061069;28;20037;-63
2023/05/05 06:34:19;;;;;;;10.18;5.90;;;21.00;59.30;;;;;;5088801;28;20107;-63
2023/05/05 06:36:45;;;;;;;9.90;5.60;;;21.10;59.20;;;;;;5075446;28;20103;-64
2023/05/05 06:39:10;;;;;;;10.65;5.63;;;21.20;58.90;;;;;;5073933;28;20082;-63
2023/05/05 06:41:36;;;;;;;12.32;6.18;;;21.30;58.70;;;;;;5073572;28;20407;-64
2023/05/05 06:44:02;;;;;;;12.13;6.00;;;21.50;58.50;;;;;;5073249;28;20028;-64
2023/05/05 06:46:28;;;;;;;10.38;6.28;;;21.60;58.20;;;;;;5072176;28;20025;-63
2023/05/05 06:48:54;;;;;;;11.90;6.53;;;21.70;58.00;;;;;;5068997;28;20099;-63
2023/05/05 06:51:19;;;;;;;10.05;6.57;;;21.90;57.80;;;;;;5070272;28;20465;-64
2023/05/05 06:53:45;;;;;;;11.10;6.00;;;22.10;57.60;;;;;;5069522;28;20120;-62
2023/05/05 06:56:11;;;;;;;12.07;6.25;;;22.20;57.20;;;;;;5059771;28;20247;-64
2023/05/05 06:58:37;;;;;;;10.80;6.15;;;22.30;57.00;;;;;;5071657;28;20094;-64
2023/05/05 07:01:03;;;;;;;9.93;6.15;;;22.40;56.80;;;;;;5069253;28;20029;-64
2023/05/05 07:03:29;;;;;;;10.20;5.95;;;22.50;56.70;;;;;;5070051;28;20029;-64
2023/05/05 07:05:56;;;;;;;9.48;6.15;;;22.50;56.50;;;;;;5056592;28;20032;-64
2023/05/05 07:08:23;;;;;;;9.02;5.78;;;22.60;56.30;;;;;;5060963;28;20051;-64
2023/05/05 07:10:49;;;;;;;9.05;5.80;;;22.60;56.40;;;;;;5061898;28;20029;-64
2023/05/05 07:13:16;;;;;;;9.35;5.70;;;22.70;56.30;;;;;;5057726;28;20035;-64
2023/05/05 07:15:45;;;;;;;9.68;5.90;;;22.80;56.10;;;;;;5065564;28;20107;-64
2023/05/05 07:18:19;;;;;;;10.90;5.82;;;22.80;55.90;;;;;;5066963;28;20036;-64
2023/05/05 07:20:45;;;;;;;10.88;6.07;;;22.80;55.90;;;;;;5058330;28;20025;-64
2023/05/05 07:23:11;;;;;;;13.02;6.45;;;22.70;55.90;;;;;;5066546;28;20036;-64
2023/05/05 07:25:37;;;;;;;11.02;6.10;;;22.80;55.90;;;;;;5066887;28;20036;-64
2023/05/05 07:28:03;;;;;;;10.32;6.03;;;22.80;55.70;;;;;;5061692;28;20136;-64
2023/05/05 07:30:29;;;;;;;10.73;5.95;;;22.90;55.60;;;;;;5068741;28;20095;-64
2023/05/05 07:32:55;;;;;;;10.82;6.88;;;22.90;55.40;;;;;;5065368;28;20043;-64
2023/05/05 07:35:22;;;;;;;14.00;6.57;;;23.00;55.30;;;;;;5056354;28;20033;-64
2023/05/05 07:37:48;;;;;;;10.40;6.43;;;23.20;55.10;;;;;;5068273;28;20021;-64
2023/05/05 07:40:14;;;;;;;10.90;6.70;;;23.30;54.70;;;;;;5064165;28;20020;-64
2023/05/05 07:42:40;;;;;;;12.18;6.63;;;23.50;54.40;;;;;;5069114;28;20032;-64
2023/05/05 07:45:06;;;;;;;10.93;6.28;;;23.60;54.20;;;;;;5065712;28;21306;-65
2023/05/05 07:47:32;;;;;;;10.15;6.28;;;23.80;53.80;;;;;;5068174;28;20039;-64
2023/05/05 07:49:58;;;;;;;9.50;6.25;;;23.90;53.50;;;;;;5064662;28;20337;-64
2023/05/05 07:52:24;;;;;;;10.98;5.85;;;24.00;53.30;;;;;;5057499;28;20116;-64
2023/05/05 07:54:49;;;;;;;13.10;6.43;;;24.10;53.00;;;;;;5068332;28;20051;-64
2023/05/05 07:57:15;;;;;;;9.18;5.10;;;24.20;52.80;;;;;;5067450;28;20033;-65
2023/05/05 07:59:44;;;;;;;11.02;5.20;;;24.30;52.50;;;;;;5067556;28;20044;-65
2023/05/05 08:02:11;;;;;;;10.85;5.25;;;24.40;52.30;;;;;;5066859;28;20445;-65
2023/05/05 08:04:40;;;;;;;11.15;4.90;;;24.50;52.20;;;;;;5062250;28;20024;-64
2023/05/05 08:07:09;;;;;;;9.75;5.18;;;24.70;52.00;;;;;;5066044;28;20389;-65
2023/05/05 08:09:36;;;;;;;9.55;4.95;;;24.70;51.50;;;;;;5066563;28;20028;-65
2023/05/05 08:12:02;;;;;;;11.43;5.10;;;24.80;51.20;;;;;;5066369;28;20029;-64
2023/05/05 08:14:30;;;;;;;8.80;4.82;;;24.90;50.90;;;;;;5067848;28;20056;-64
2023/05/05 08:16:56;;;;;;;9.18;5.05;;;25.00;50.60;;;;;;5065562;28;20029;-64
2023/05/05 08:19:22;;;;;;;8.32;3.97;;;25.10;50.20;;;;;;5067585;28;20111;-64
2023/05/05 08:21:48;;;;;;;8.38;4.07;;;25.10;50.10;;;;;;5064135;28;20021;-64
2023/05/05 08:24:14;;;;;;;7.03;3.70;;;25.20;50.10;;;;;;5053264;28;20453;-65
2023/05/05 08:26:40;;;;;;;8.85;3.88;;;25.30;49.90;;;;;;5061247;28;20092;-65
2023/05/05 08:29:06;;;;;;;8.02;3.75;;;25.40;49.70;;;;;;5063410;28;20034;-65
2023/05/05 08:31:35;;;;;;;7.30;4.05;;;25.40;49.40;;;;;;5073588;28;20351;-65
2023/05/05 08:34:03;;;;;;;12.18;3.67;;;25.50;49.00;;;;;;5074578;28;20028;-65
2023/05/05 08:36:29;;;;;;;6.97;3.47;;;25.50;48.70;;;;;;5057943;28;20101;-66
2023/05/05 08:38:56;;;;;;;9.63;3.40;;;25.40;48.80;;;;;;5069714;28;20012;-66
2023/05/05 08:41:21;;;;;;;8.27;3.30;;;25.40;48.70;;;;;;5062860;28;20055;-66
2023/05/05 08:43:49;;;;;;;9.32;3.90;;;25.50;48.70;;;;;;5074734;28;20025;-66
2023/05/05 08:46:15;;;;;;;7.65;3.72;;;25.50;48.90;;;;;;5072220;28;20103;-66
2023/05/05 08:48:43;;;;;;;8.98;3.85;;;25.70;48.20;;;;;;5072671;28;20452;-66
2023/05/05 08:51:15;;;;;;;9.00;4.03;;;25.70;48.00;;;;;;5068399;28;20044;-66
2023/05/05 08:53:53;;;;;;;7.75;3.22;;;25.70;47.70;;;;;;5064498;28;20047;-66
2023/05/05 08:56:20;;;;;;;5.85;2.47;;;25.70;47.50;;;;;;5054779;28;20115;-66
2023/05/05 08:58:48;;;;;;;6.28;2.60;;;25.90;47.50;;;;;;5072913;28;20043;-66
2023/05/05 09:01:15;;;;;;;7.47;2.80;;;26.00;47.30;;;;;;5074325;28;20332;-66
2023/05/05 09:03:42;;;;;;;7.68;3.42;;;26.00;47.10;;;;;;5073888;28;20040;-66
2023/05/05 09:06:08;;;;;;;7.30;3.13;;;25.90;47.10;;;;;;5074319;28;20315;-65
2023/05/05 09:08:36;;;;;;;6.90;3.25;;;25.70;47.10;;;;;;5073217;28;20028;-66
2023/05/05 09:11:02;;;;;;;7.25;3.20;;;25.50;47.20;;;;;;5074039;28;20131;-66
2023/05/05 09:13:30;;;;;;;7.20;2.50;;;25.20;47.20;;;;;;5071850;28;20508;-66
2023/05/05 09:15:57;;;;;;;5.00;2.33;;;25.00;47.60;;;;;;5073519;28;20020;-66
2023/05/05 09:18:23;;;;;;;5.78;1.80;;;24.80;47.70;;;;;;5053204;28;20473;-65
2023/05/05 09:20:48;;;;;;;4.70;1.88;;;24.60;47.80;;;;;;5072486;28;20017;-66
2023/05/05 09:23:16;;;;;;;6.35;1.80;;;24.40;47.80;;;;;;5067998;28;20017;-66
2023/05/05 09:25:46;;;;;;;5.00;1.92;;;24.20;48.00;;;;;;5062077;28;20437;-65
2023/05/05 09:28:14;;;;;;;5.45;1.73;;;24.00;48.20;;;;;;5072619;28;20038;-65
2023/05/05 09:30:43;;;;;;;6.65;2.30;;;24.00;48.50;;;;;;5058772;28;20028;-66
2023/05/05 09:33:09;;;;;;;5.78;2.50;;;23.90;48.60;;;;;;5072705;28;20033;-64
2023/05/05 09:35:47;;;;;;;6.22;3.10;;;23.80;48.70;;;;;;5073430;28;20116;-64
2023/05/05 09:38:13;;;;;;;8.30;3.55;;;23.90;48.80;;;;;;5073370;28;20041;-64
2023/05/05 09:40:49;;;;;;;8.30;3.60;;;23.90;49.00;;;;;;5077855;28;20033;-64
2023/05/05 09:43:16;;;;;;;7.40;3.08;;;24.00;49.30;;;;;;5077568;28;20028;-64
2023/05/05 09:45:43;;;;;;;9.52;3.72;;;24.10;49.20;;;;;;5077717;28;20082;-65
2023/05/05 09:48:28;;;;;;;7.18;3.58;;;24.10;49.30;;;;;;5077750;28;20104;-64
2023/05/05 09:50:55;;;;;;;7.97;3.90;;;24.10;49.20;;;;;;5077680;28;20095;-64
2023/05/05 09:53:22;;;;;;;8.18;3.97;;;24.10;49.30;;;;;;5075611;28;20055;-64
2023/05/05 09:55:59;;;;;;;7.15;3.90;;;24.00;49.40;;;;;;5077506;28;20020;-64
2023/05/05 09:58:29;;;;;;;8.32;3.60;;;23.90;49.50;;;;;;5063594;28;20016;-64
2023/05/05 10:00:56;;;;;;;6.28;3.25;;;23.70;49.50;;;;;;5077045;28;20040;-64
2023/05/05 10:03:23;;;;;;;8.23;3.72;;;23.70;49.80;;;;;;5069982;28;20025;-65
2023/05/05 10:05:50;;;;;;;7.78;4.13;;;23.60;50.00;;;;;;5059809;28;20043;-64
2023/05/05 10:08:20;;;;;;;8.70;3.70;;;23.60;50.10;;;;;;5077142;28;20037;-65
2023/05/05 10:10:50;;;;;;;7.15;3.50;;;23.60;50.20;;;;;;5076127;28;20390;-65
2023/05/05 10:13:19;;;;;;;6.78;3.35;;;23.50;50.40;;;;;;5064515;28;20047;-65
2023/05/05 10:15:48;;;;;;;6.07;3.15;;;23.50;50.50;;;;;;5076427;28;20021;-66
2023/05/05 10:18:22;;;;;;;8.05;3.80;;;23.40;50.60;;;;;;5077283;28;20116;-65
2023/05/05 10:21:02;;;;;;;6.05;3.08;;;23.40;50.80;;;;;;5076960;28;20017;-64
2023/05/05 10:24:00;;;;;;;5.97;2.75;;;23.30;50.90;;;;;;5068641;28;20033;-65
2023/05/05 10:26:30;;;;;;;8.82;3.10;;;23.20;50.80;;;;;;5074841;28;20542;-66
2023/05/05 10:29:00;;;;;;;8.05;3.20;;;23.10;51.00;;;;;;5075372;28;20073;-66
2023/05/05 10:31:41;;;;;;;6.93;3.08;;;23.00;50.90;;;;;;5075192;28;20039;-66
2023/05/05 10:34:09;;;;;;;8.00;2.97;;;22.90;51.10;;;;;;5063561;28;20140;-66
2023/05/05 10:36:37;;;;;;;7.28;3.50;;;22.80;51.20;;;;;;5069094;28;20039;-68
2023/05/05 10:39:05;;;;;;;8.50;3.20;;;22.70;51.40;;;;;;5075361;28;20044;-66
2023/05/05 10:41:32;;;;;;;7.28;3.17;;;22.60;51.50;;;;;;5076458;28;20046;-66
2023/05/05 10:43:59;;;;;;;7.35;2.60;;;22.50;51.80;;;;;;5075738;28;20067;-66
2023/05/05 10:46:26;;;;;;;7.28;3.03;;;22.50;52.10;;;;;;5066718;28;20033;-66
2023/05/05 10:49:11;;;;;;;7.40;3.22;;;22.50;52.10;;;;;;5062394;28;20108;-66
2023/05/05 10:51:48;;;;;;;6.93;3.03;;;22.60;52.10;;;;;;5064602;28;20028;-67
2023/05/05 10:54:26;;;;;;;7.45;3.15;;;22.60;52.10;;;;;;5074898;28;20032;-66
2023/05/05 10:56:53;;;;;;;7.88;3.47;;;22.60;52.20;;;;;;5064634;28;20029;-66
2023/05/05 10:59:37;;;;;;;7.40;3.35;;;22.60;52.20;;;;;;5066756;28;20036;-66
2023/05/05 11:02:28;;;;;;;7.85;3.03;;;22.60;52.20;;;;;;5062204;28;20029;-66
2023/05/05 11:05:03;;;;;;;8.02;3.53;;;22.70;52.40;;;;;;5067492;28;20055;-66
2023/05/05 11:07:29;;;;;;;6.30;3.00;;;22.60;52.40;;;;;;5075077;28;20067;-66
2023/05/05 11:09:57;;;;;;;7.22;3.47;;;22.60;52.30;;;;;;5067668;28;20057;-66
2023/05/05 11:12:23;;;;;;;5.85;2.75;;;22.60;52.30;;;;;;5076100;28;20127;-66
2023/05/05 11:15:30;;;;;;;6.97;3.50;;;22.60;52.30;;;;;;5068959;28;20120;-66
2023/05/05 11:17:59;;;;;;;7.38;3.05;;;22.50;52.30;;;;;;5067024;28;20028;-66
2023/05/05 11:20:42;;;;;;;6.57;2.72;;;22.50;52.40;;;;;;5067658;28;20031;-66
2023/05/05 11:23:07;;;;;;;7.60;2.60;;;22.40;52.80;;;;;;5067555;28;20064;-66
2023/05/05 11:25:33;;;;;;;6.90;2.20;;;22.40;53.00;;;;;;5074717;28;20067;-66
2023/05/05 11:28:15;;;;;;;5.85;1.90;;;22.30;53.40;;;;;;5065783;28;20086;-66
2023/05/05 11:30:59;;;;;;;6.70;1.80;;;22.20;53.80;;;;;;5066068;28;20091;-66
2023/05/05 11:33:34;;;;;;;5.32;2.13;;;22.20;54.40;;;;;;5066908;28;20032;-65
2023/05/05 11:36:07;;;;;;;5.50;2.10;;;22.10;54.90;;;;;;5074455;28;20056;-64
2023/05/05 11:38:54;;;;;;;4.95;2.17;;;22.00;55.50;;;;;;5067090;28;20453;-65
2023/05/05 11:41:32;;;;;;;6.65;2.35;;;21.90;56.20;;;;;;5072681;28;20025;-65
2023/05/05 11:44:18;;;;;;;4.78;1.80;;;21.80;56.90;;;;;;5072434;28;20472;-65
2023/05/05 11:46:49;;;;;;;2.72;1.30;;;21.70;57.30;;;;;;5065970;28;20028;-65
2023/05/05 11:49:28;;;;;;;5.20;0.98;;;21.40;56.70;;;;;;5070360;28;20036;-65
2023/05/05 11:51:55;;;;;;;3.60;0.77;;;21.20;56.80;;;;;;5060664;28;20037;-66
2023/05/05 11:54:22;;;;;;;2.33;0.70;;;20.80;57.00;;;;;;5057820;28;20457;-65
2023/05/05 11:56:58;;;;;;;2.90;0.85;;;20.50;57.70;;;;;;5059801;28;20028;-65
2023/05/05 11:59:24;;;;;;;2.45;0.90;;;20.20;58.50;;;;;;5064361;28;20033;-64
2023/05/05 12:01:51;;;;;;;1.98;0.70;;;19.90;59.30;;;;;;5066224;28;20346;-64
2023/05/05 12:04:17;;;;;;;3.80;1.10;;;19.70;60.00;;;;;;5071477;28;20346;-63
2023/05/05 12:06:47;;;;;;;3.47;1.00;;;19.50;60.70;;;;;;5073723;28;20111;-64
2023/05/05 12:09:18;;;;;;;0.88;0.60;;;19.30;61.40;;;;;;5073820;28;20028;-63
2023/05/05 12:11:53;;;;;;;2.87;0.93;;;19.20;62.00;;;;;;5074290;28;20024;-64
2023/05/05 12:14:20;;;;;;;2.55;0.80;;;19.10;62.40;;;;;;5073032;28;20036;-64
2023/05/05 12:16:54;;;;;;;2.92;1.00;;;19.00;62.80;;;;;;5072147;28;20024;-63
2023/05/05 12:19:21;;;;;;;2.28;0.85;;;18.90;63.30;;;;;;5074399;28;20017;-65
2023/05/05 12:21:47;;;;;;;2.55;0.88;;;18.80;63.70;;;;;;5072051;28;20028;-65
2023/05/05 12:24:13;;;;;;;3.47;1.20;;;18.70;64.10;;;;;;5074764;28;20028;-63
2023/05/05 12:26:39;;;;;;;3.70;1.30;;;18.70;64.40;;;;;;5071060;28;20421;-64
2023/05/05 12:29:04;;;;;;;4.60;1.20;;;18.60;64.70;;;;;;5071311;28;20023;-64
2023/05/05 12:31:38;;;;;;;2.42;0.93;;;18.60;64.90;;;;;;5063316;28;20449;-64
2023/05/05 12:34:06;;;;;;;3.45;0.80;;;18.60;65.20;;;;;;5073055;28;20088;-64
2023/05/05 12:36:33;;;;;;;4.75;1.23;;;18.50;65.20;;;;;;5066780;28;20032;-64
2023/05/05 12:38:59;;;;;;;1.75;0.90;;;18.50;65.50;;;;;;5070569;28;20044;-63
2023/05/05 12:41:25;;;;;;;2.67;0.93;;;18.50;65.70;;;;;;5068928;28;20024;-63
2023/05/05 12:43:55;;;;;;;3.17;1.00;;;18.50;65.80;;;;;;5068369;28;20544;-64
2023/05/05 12:46:22;;;;;;;2.63;0.97;;;18.50;66.10;;;;;;5048519;28;20385;-64
2023/05/05 12:49:00;;;;;;;4.68;1.30;;;18.50;66.30;;;;;;5068495;28;20039;-64
2023/05/05 12:51:26;;;;;;;1.70;1.00;;;18.50;66.50;;;;;;5055949;28;20028;-64